sensor_id;sensor_type;location;lat;lon;timestamp;P1;durP1;ratioP1;P2;durP2;ratioP2
52878;SDS011;38747;53.140;6.498;2022-12-26T00:01:30;36.87;;;8.77;;
52878;SDS011;38747;53.140;6.498;2022-12-26T00:03:57;40.83;;;8.98;;
52878;SDS011;38747;53.140;6.498;2022-12-26T00:06:26;36.88;;;10.30;;
52878;SDS011;38747;53.140;6.498;2022-12-26T00:08:52;38.67;;;8.73;;
52878;SDS011;38747;53.140;6.498;2022-12-26T00:11:19;42.42;;;9.60;;
52878;SDS011;38747;53.140;6.498;2022-12-26T00:13:45;35.17;;;9.32;;
52878;SDS011;38747;53.140;6.498;2022-12-26T00:16:12;33.70;;;9.20;;
52878;SDS011;38747;53.140;6.498;2022-12-26T00:18:40;35.42;;;8.57;;
52878;SDS011;38747;53.140;6.498;2022-12-26T00:21:07;31.88;;;8.55;;
52878;SDS011;38747;53.140;6.498;2022-12-26T00:23:34;32.20;;;9.25;;
52878;SDS011;38747;53.140;6.498;2022-12-26T00:26:01;34.70;;;8.93;;
52878;SDS011;38747;53.140;6.498;2022-12-26T00:28:31;28.80;;;8.30;;
52878;SDS011;38747;53.140;6.498;2022-12-26T00:30:57;37.90;;;9.68;;
52878;SDS011;38747;53.140;6.498;2022-12-26T00:33:23;39.55;;;9.35;;
52878;SDS011;38747;53.140;6.498;2022-12-26T00:35:48;32.83;;;8.83;;
52878;SDS011;38747;53.140;6.498;2022-12-26T00:38:14;34.33;;;8.93;;
52878;SDS011;38747;53.140;6.498;2022-12-26T00:40:40;31.77;;;9.80;;
52878;SDS011;38747;53.140;6.498;2022-12-26T00:43:10;43.35;;;9.38;;
52878;SDS011;38747;53.140;6.498;2022-12-26T00:45:36;47.28;;;10.05;;
52878;SDS011;38747;53.140;6.498;2022-12-26T00:48:02;47.30;;;10.10;;
52878;SDS011;38747;53.140;6.498;2022-12-26T00:50:27;51.03;;;10.97;;
52878;SDS011;38747;53.140;6.498;2022-12-26T00:52:53;49.30;;;10.00;;
52878;SDS011;38747;53.140;6.498;2022-12-26T00:55:20;42.40;;;10.13;;
52878;SDS011;38747;53.140;6.498;2022-12-26T00:57:46;45.72;;;10.25;;
52878;SDS011;38747;53.140;6.498;2022-12-26T01:00:12;57.87;;;10.10;;
52878;SDS011;38747;53.140;6.498;2022-12-26T01:02:38;53.07;;;10.67;;
52878;SDS011;38747;53.140;6.498;2022-12-26T01:05:05;47.47;;;10.95;;
52878;SDS011;38747;53.140;6.498;2022-12-26T01:07:32;49.38;;;10.95;;
52878;SDS011;38747;53.140;6.498;2022-12-26T01:10:02;52.85;;;10.77;;
52878;SDS011;38747;53.140;6.498;2022-12-26T01:12:29;54.43;;;11.37;;
52878;SDS011;38747;53.140;6.498;2022-12-26T01:14:55;52.13;;;10.57;;
52878;SDS011;38747;53.140;6.498;2022-12-26T01:17:22;52.13;;;10.52;;
52878;SDS011;38747;53.140;6.498;2022-12-26T01:19:48;50.45;;;10.57;;
52878;SDS011;38747;53.140;6.498;2022-12-26T01:22:14;49.13;;;11.10;;
52878;SDS011;38747;53.140;6.498;2022-12-26T01:24:39;51.15;;;10.95;;
52878;SDS011;38747;53.140;6.498;2022-12-26T01:27:05;49.50;;;9.93;;
52878;SDS011;38747;53.140;6.498;2022-12-26T01:29:30;55.33;;;10.37;;
52878;SDS011;38747;53.140;6.498;2022-12-26T01:31:56;48.53;;;11.05;;
52878;SDS011;38747;53.140;6.498;2022-12-26T01:34:21;51.47;;;12.00;;
52878;SDS011;38747;53.140;6.498;2022-12-26T01:36:47;53.45;;;11.82;;
52878;SDS011;38747;53.140;6.498;2022-12-26T01:39:13;49.47;;;11.30;;
52878;SDS011;38747;53.140;6.498;2022-12-26T01:41:38;57.15;;;11.68;;
52878;SDS011;38747;53.140;6.498;2022-12-26T01:44:05;41.60;;;11.00;;
52878;SDS011;38747;53.140;6.498;2022-12-26T01:46:51;44.97;;;11.07;;
52878;SDS011;38747;53.140;6.498;2022-12-26T01:51:59;38.77;;;10.33;;
52878;SDS011;38747;53.140;6.498;2022-12-26T01:54:31;39.63;;;10.05;;
52878;SDS011;38747;53.140;6.498;2022-12-26T01:57:01;41.45;;;10.02;;
52878;SDS011;38747;53.140;6.498;2022-12-26T01:59:34;36.60;;;9.55;;
52878;SDS011;38747;53.140;6.498;2022-12-26T02:02:02;38.58;;;9.52;;
52878;SDS011;38747;53.140;6.498;2022-12-26T02:04:30;36.47;;;9.60;;
52878;SDS011;38747;53.140;6.498;2022-12-26T02:07:18;42.45;;;10.10;;
52878;SDS011;38747;53.140;6.498;2022-12-26T02:09:44;36.63;;;9.68;;
52878;SDS011;38747;53.140;6.498;2022-12-26T02:12:12;36.07;;;9.53;;
52878;SDS011;38747;53.140;6.498;2022-12-26T02:15:09;36.10;;;9.23;;
52878;SDS011;38747;53.140;6.498;2022-12-26T02:17:37;45.22;;;9.77;;
52878;SDS011;38747;53.140;6.498;2022-12-26T02:20:07;37.50;;;9.35;;
52878;SDS011;38747;53.140;6.498;2022-12-26T02:25:47;36.03;;;9.73;;
52878;SDS011;38747;53.140;6.498;2022-12-26T02:28:36;39.83;;;9.82;;
52878;SDS011;38747;53.140;6.498;2022-12-26T02:31:35;38.85;;;9.80;;
52878;SDS011;38747;53.140;6.498;2022-12-26T02:37:27;29.55;;;8.85;;
52878;SDS011;38747;53.140;6.498;2022-12-26T02:51:05;28.00;;;8.35;;
52878;SDS011;38747;53.140;6.498;2022-12-26T02:57:04;28.90;;;9.25;;
52878;SDS011;38747;53.140;6.498;2022-12-26T03:00:12;26.23;;;9.02;;
52878;SDS011;38747;53.140;6.498;2022-12-26T03:03:06;24.73;;;9.38;;
52878;SDS011;38747;53.140;6.498;2022-12-26T03:06:05;25.77;;;10.00;;
52878;SDS011;38747;53.140;6.498;2022-12-26T03:09:03;31.70;;;10.70;;
52878;SDS011;38747;53.140;6.498;2022-12-26T03:11:51;34.15;;;11.15;;
52878;SDS011;38747;53.140;6.498;2022-12-26T03:14:56;29.77;;;11.48;;
52878;SDS011;38747;53.140;6.498;2022-12-26T03:20:14;29.13;;;11.60;;
52878;SDS011;38747;53.140;6.498;2022-12-26T03:22:54;33.00;;;12.50;;
52878;SDS011;38747;53.140;6.498;2022-12-26T03:28:20;40.42;;;12.65;;
52878;SDS011;38747;53.140;6.498;2022-12-26T03:30:47;35.92;;;12.85;;
52878;SDS011;38747;53.140;6.498;2022-12-26T03:33:13;40.97;;;13.67;;
52878;SDS011;38747;53.140;6.498;2022-12-26T03:35:58;37.88;;;13.23;;
52878;SDS011;38747;53.140;6.498;2022-12-26T03:38:38;38.00;;;13.77;;
52878;SDS011;38747;53.140;6.498;2022-12-26T03:41:17;36.92;;;13.32;;
52878;SDS011;38747;53.140;6.498;2022-12-26T03:44:54;45.53;;;14.48;;
52878;SDS011;38747;53.140;6.498;2022-12-26T03:47:24;43.00;;;14.50;;
52878;SDS011;38747;53.140;6.498;2022-12-26T03:50:33;43.90;;;13.82;;
52878;SDS011;38747;53.140;6.498;2022-12-26T03:53:21;39.45;;;13.77;;
52878;SDS011;38747;53.140;6.498;2022-12-26T03:59:18;44.25;;;14.95;;
52878;SDS011;38747;53.140;6.498;2022-12-26T04:02:08;40.87;;;14.20;;
52878;SDS011;38747;53.140;6.498;2022-12-26T04:04:54;41.75;;;15.05;;
52878;SDS011;38747;53.140;6.498;2022-12-26T04:07:42;42.00;;;13.50;;
52878;SDS011;38747;53.140;6.498;2022-12-26T04:10:34;41.28;;;14.50;;
52878;SDS011;38747;53.140;6.498;2022-12-26T04:13:27;39.90;;;13.95;;
52878;SDS011;38747;53.140;6.498;2022-12-26T04:16:23;42.07;;;14.20;;
52878;SDS011;38747;53.140;6.498;2022-12-26T04:27:44;41.22;;;13.20;;
52878;SDS011;38747;53.140;6.498;2022-12-26T04:30:28;39.07;;;13.73;;
52878;SDS011;38747;53.140;6.498;2022-12-26T04:33:20;40.20;;;14.05;;
52878;SDS011;38747;53.140;6.498;2022-12-26T04:36:19;42.15;;;14.68;;
52878;SDS011;38747;53.140;6.498;2022-12-26T04:39:28;41.92;;;13.85;;
52878;SDS011;38747;53.140;6.498;2022-12-26T04:42:16;40.25;;;13.95;;
52878;SDS011;38747;53.140;6.498;2022-12-26T04:45:05;39.83;;;14.37;;
52878;SDS011;38747;53.140;6.498;2022-12-26T04:47:32;41.95;;;14.73;;
52878;SDS011;38747;53.140;6.498;2022-12-26T04:49:58;41.55;;;15.27;;
52878;SDS011;38747;53.140;6.498;2022-12-26T04:52:36;41.33;;;15.00;;
52878;SDS011;38747;53.140;6.498;2022-12-26T04:55:21;44.25;;;15.00;;
52878;SDS011;38747;53.140;6.498;2022-12-26T04:57:46;44.00;;;15.97;;
52878;SDS011;38747;53.140;6.498;2022-12-26T05:00:12;42.30;;;15.87;;
52878;SDS011;38747;53.140;6.498;2022-12-26T05:02:38;43.70;;;15.57;;
52878;SDS011;38747;53.140;6.498;2022-12-26T05:05:22;40.53;;;15.60;;
52878;SDS011;38747;53.140;6.498;2022-12-26T05:08:11;38.00;;;14.85;;
52878;SDS011;38747;53.140;6.498;2022-12-26T05:11:08;35.20;;;14.15;;
52878;SDS011;38747;53.140;6.498;2022-12-26T05:13:34;38.87;;;15.30;;
52878;SDS011;38747;53.140;6.498;2022-12-26T05:16:00;36.38;;;14.85;;
52878;SDS011;38747;53.140;6.498;2022-12-26T05:18:44;37.33;;;15.03;;
52878;SDS011;38747;53.140;6.498;2022-12-26T05:21:28;36.13;;;14.18;;
52878;SDS011;38747;53.140;6.498;2022-12-26T05:24:12;37.90;;;14.75;;
52878;SDS011;38747;53.140;6.498;2022-12-26T05:26:56;35.60;;;13.63;;
52878;SDS011;38747;53.140;6.498;2022-12-26T05:29:40;36.63;;;15.45;;
52878;SDS011;38747;53.140;6.498;2022-12-26T05:32:06;34.43;;;13.63;;
52878;SDS011;38747;53.140;6.498;2022-12-26T05:34:32;34.83;;;14.63;;
52878;SDS011;38747;53.140;6.498;2022-12-26T05:36:57;34.63;;;14.93;;
52878;SDS011;38747;53.140;6.498;2022-12-26T05:39:24;32.03;;;14.15;;
52878;SDS011;38747;53.140;6.498;2022-12-26T05:41:49;35.57;;;14.80;;
52878;SDS011;38747;53.140;6.498;2022-12-26T05:44:15;32.97;;;14.02;;
52878;SDS011;38747;53.140;6.498;2022-12-26T05:46:41;32.20;;;13.75;;
52878;SDS011;38747;53.140;6.498;2022-12-26T05:49:07;31.77;;;15.13;;
52878;SDS011;38747;53.140;6.498;2022-12-26T05:51:33;36.22;;;14.55;;
52878;SDS011;38747;53.140;6.498;2022-12-26T05:54:00;30.67;;;13.52;;
52878;SDS011;38747;53.140;6.498;2022-12-26T05:56:26;31.13;;;13.65;;
52878;SDS011;38747;53.140;6.498;2022-12-26T05:58:53;35.83;;;15.50;;
52878;SDS011;38747;53.140;6.498;2022-12-26T06:01:20;33.58;;;14.65;;
52878;SDS011;38747;53.140;6.498;2022-12-26T06:03:46;31.35;;;14.77;;
52878;SDS011;38747;53.140;6.498;2022-12-26T06:06:18;33.43;;;15.03;;
52878;SDS011;38747;53.140;6.498;2022-12-26T06:08:48;30.42;;;14.60;;
52878;SDS011;38747;53.140;6.498;2022-12-26T06:11:15;27.55;;;12.73;;
52878;SDS011;38747;53.140;6.498;2022-12-26T06:13:42;31.20;;;13.25;;
52878;SDS011;38747;53.140;6.498;2022-12-26T06:16:12;28.40;;;12.98;;
52878;SDS011;38747;53.140;6.498;2022-12-26T06:18:39;28.90;;;14.50;;
52878;SDS011;38747;53.140;6.498;2022-12-26T06:21:06;29.33;;;14.05;;
52878;SDS011;38747;53.140;6.498;2022-12-26T06:23:36;30.17;;;14.80;;
52878;SDS011;38747;53.140;6.498;2022-12-26T06:26:02;25.98;;;12.85;;
52878;SDS011;38747;53.140;6.498;2022-12-26T06:28:29;26.90;;;13.18;;
52878;SDS011;38747;53.140;6.498;2022-12-26T06:31:00;27.43;;;13.20;;
52878;SDS011;38747;53.140;6.498;2022-12-26T06:33:28;26.85;;;12.52;;
52878;SDS011;38747;53.140;6.498;2022-12-26T06:35:53;25.52;;;12.73;;
52878;SDS011;38747;53.140;6.498;2022-12-26T06:38:19;25.17;;;12.50;;
52878;SDS011;38747;53.140;6.498;2022-12-26T06:40:44;27.10;;;12.47;;
52878;SDS011;38747;53.140;6.498;2022-12-26T06:43:10;24.47;;;12.23;;
52878;SDS011;38747;53.140;6.498;2022-12-26T06:45:36;24.90;;;12.13;;
52878;SDS011;38747;53.140;6.498;2022-12-26T06:48:01;25.02;;;11.50;;
52878;SDS011;38747;53.140;6.498;2022-12-26T06:50:27;23.57;;;11.80;;
52878;SDS011;38747;53.140;6.498;2022-12-26T06:52:53;22.52;;;11.25;;
52878;SDS011;38747;53.140;6.498;2022-12-26T06:55:18;23.87;;;11.27;;
52878;SDS011;38747;53.140;6.498;2022-12-26T06:57:44;20.00;;;11.45;;
52878;SDS011;38747;53.140;6.498;2022-12-26T07:00:10;21.97;;;11.40;;
52878;SDS011;38747;53.140;6.498;2022-12-26T07:02:36;24.45;;;11.60;;
52878;SDS011;38747;53.140;6.498;2022-12-26T07:05:02;24.43;;;11.57;;
52878;SDS011;38747;53.140;6.498;2022-12-26T07:07:28;21.10;;;10.32;;
52878;SDS011;38747;53.140;6.498;2022-12-26T07:09:53;21.17;;;11.20;;
52878;SDS011;38747;53.140;6.498;2022-12-26T07:12:19;23.60;;;10.47;;
52878;SDS011;38747;53.140;6.498;2022-12-26T07:14:46;20.95;;;11.07;;
52878;SDS011;38747;53.140;6.498;2022-12-26T07:17:12;21.52;;;10.40;;
52878;SDS011;38747;53.140;6.498;2022-12-26T07:19:38;21.93;;;10.63;;
52878;SDS011;38747;53.140;6.498;2022-12-26T07:22:03;18.80;;;10.00;;
52878;SDS011;38747;53.140;6.498;2022-12-26T07:24:29;18.50;;;10.00;;
52878;SDS011;38747;53.140;6.498;2022-12-26T07:26:54;18.93;;;10.20;;
52878;SDS011;38747;53.140;6.498;2022-12-26T07:29:20;18.67;;;9.80;;
52878;SDS011;38747;53.140;6.498;2022-12-26T07:31:46;19.15;;;8.95;;
52878;SDS011;38747;53.140;6.498;2022-12-26T07:34:12;23.07;;;9.20;;
52878;SDS011;38747;53.140;6.498;2022-12-26T07:36:38;17.95;;;9.00;;
52878;SDS011;38747;53.140;6.498;2022-12-26T07:39:05;18.23;;;9.07;;
52878;SDS011;38747;53.140;6.498;2022-12-26T07:41:31;19.85;;;9.23;;
52878;SDS011;38747;53.140;6.498;2022-12-26T07:44:15;17.87;;;8.57;;
52878;SDS011;38747;53.140;6.498;2022-12-26T07:46:41;17.05;;;8.95;;
52878;SDS011;38747;53.140;6.498;2022-12-26T07:49:06;17.87;;;8.90;;
52878;SDS011;38747;53.140;6.498;2022-12-26T07:51:33;18.33;;;9.07;;
52878;SDS011;38747;53.140;6.498;2022-12-26T07:53:58;20.40;;;9.10;;
52878;SDS011;38747;53.140;6.498;2022-12-26T07:56:24;18.83;;;8.60;;
52878;SDS011;38747;53.140;6.498;2022-12-26T07:58:50;21.73;;;8.35;;
52878;SDS011;38747;53.140;6.498;2022-12-26T08:01:16;16.83;;;7.90;;
52878;SDS011;38747;53.140;6.498;2022-12-26T08:03:42;15.13;;;7.73;;
52878;SDS011;38747;53.140;6.498;2022-12-26T08:06:09;15.40;;;7.75;;
52878;SDS011;38747;53.140;6.498;2022-12-26T08:08:35;18.88;;;8.15;;
52878;SDS011;38747;53.140;6.498;2022-12-26T08:11:02;15.25;;;7.20;;
52878;SDS011;38747;53.140;6.498;2022-12-26T08:13:29;16.03;;;8.20;;
52878;SDS011;38747;53.140;6.498;2022-12-26T08:15:56;14.95;;;7.55;;
52878;SDS011;38747;53.140;6.498;2022-12-26T08:18:22;15.05;;;7.30;;
52878;SDS011;38747;53.140;6.498;2022-12-26T08:20:48;14.98;;;7.43;;
52878;SDS011;38747;53.140;6.498;2022-12-26T08:23:14;14.83;;;7.00;;
52878;SDS011;38747;53.140;6.498;2022-12-26T08:25:40;15.38;;;6.88;;
52878;SDS011;38747;53.140;6.498;2022-12-26T08:28:06;14.75;;;6.78;;
52878;SDS011;38747;53.140;6.498;2022-12-26T08:30:31;14.83;;;6.77;;
52878;SDS011;38747;53.140;6.498;2022-12-26T08:32:57;16.07;;;6.93;;
52878;SDS011;38747;53.140;6.498;2022-12-26T08:35:22;14.83;;;7.30;;
52878;SDS011;38747;53.140;6.498;2022-12-26T08:37:48;15.57;;;6.33;;
52878;SDS011;38747;53.140;6.498;2022-12-26T08:40:14;15.45;;;6.45;;
52878;SDS011;38747;53.140;6.498;2022-12-26T08:42:39;13.77;;;6.53;;
52878;SDS011;38747;53.140;6.498;2022-12-26T08:45:05;13.18;;;6.20;;
52878;SDS011;38747;53.140;6.498;2022-12-26T08:47:31;16.75;;;6.82;;
52878;SDS011;38747;53.140;6.498;2022-12-26T08:49:57;16.93;;;6.97;;
52878;SDS011;38747;53.140;6.498;2022-12-26T08:52:22;12.55;;;6.50;;
52878;SDS011;38747;53.140;6.498;2022-12-26T08:54:48;13.40;;;6.60;;
52878;SDS011;38747;53.140;6.498;2022-12-26T08:57:13;15.90;;;6.73;;
52878;SDS011;38747;53.140;6.498;2022-12-26T08:59:40;12.17;;;6.13;;
52878;SDS011;38747;53.140;6.498;2022-12-26T09:02:05;11.88;;;6.20;;
52878;SDS011;38747;53.140;6.498;2022-12-26T09:04:33;14.30;;;7.07;;
52878;SDS011;38747;53.140;6.498;2022-12-26T09:06:58;14.47;;;6.33;;
52878;SDS011;38747;53.140;6.498;2022-12-26T09:09:24;17.40;;;6.35;;
52878;SDS011;38747;53.140;6.498;2022-12-26T09:11:49;16.90;;;7.20;;
52878;SDS011;38747;53.140;6.498;2022-12-26T09:14:15;14.02;;;6.70;;
52878;SDS011;38747;53.140;6.498;2022-12-26T09:16:42;14.80;;;6.70;;
52878;SDS011;38747;53.140;6.498;2022-12-26T09:19:11;13.18;;;6.47;;
52878;SDS011;38747;53.140;6.498;2022-12-26T09:21:38;12.65;;;6.00;;
52878;SDS011;38747;53.140;6.498;2022-12-26T09:24:04;13.77;;;6.33;;
52878;SDS011;38747;53.140;6.498;2022-12-26T09:26:35;14.15;;;5.93;;
52878;SDS011;38747;53.140;6.498;2022-12-26T09:29:01;12.18;;;5.65;;
52878;SDS011;38747;53.140;6.498;2022-12-26T09:31:28;11.60;;;6.10;;
52878;SDS011;38747;53.140;6.498;2022-12-26T09:33:55;12.10;;;5.00;;
52878;SDS011;38747;53.140;6.498;2022-12-26T09:36:22;14.30;;;5.07;;
52878;SDS011;38747;53.140;6.498;2022-12-26T09:38:53;17.00;;;5.25;;
52878;SDS011;38747;53.140;6.498;2022-12-26T09:43:56;10.73;;;3.97;;
52878;SDS011;38747;53.140;6.498;2022-12-26T09:51:39;11.57;;;3.35;;
52878;SDS011;38747;53.140;6.498;2022-12-26T09:54:10;11.40;;;2.90;;
52878;SDS011;38747;53.140;6.498;2022-12-26T09:56:42;15.98;;;2.53;;
52878;SDS011;38747;53.140;6.498;2022-12-26T09:59:12;18.88;;;2.25;;
52878;SDS011;38747;53.140;6.498;2022-12-26T10:01:41;10.70;;;1.83;;
52878;SDS011;38747;53.140;6.498;2022-12-26T10:04:12;11.88;;;1.67;;
52878;SDS011;38747;53.140;6.498;2022-12-26T10:06:48;9.90;;;1.67;;
52878;SDS011;38747;53.140;6.498;2022-12-26T10:09:52;10.65;;;1.90;;
52878;SDS011;38747;53.140;6.498;2022-12-26T10:25:55;8.48;;;1.33;;
52878;SDS011;38747;53.140;6.498;2022-12-26T10:31:44;12.05;;;1.40;;
52878;SDS011;38747;53.140;6.498;2022-12-26T10:34:30;12.00;;;1.40;;
52878;SDS011;38747;53.140;6.498;2022-12-26T10:39:42;13.90;;;1.40;;
52878;SDS011;38747;53.140;6.498;2022-12-26T10:42:41;11.85;;;1.25;;
52878;SDS011;38747;53.140;6.498;2022-12-26T10:45:16;9.48;;;1.13;;
52878;SDS011;38747;53.140;6.498;2022-12-26T10:47:47;5.47;;;1.20;;
52878;SDS011;38747;53.140;6.498;2022-12-26T10:52:45;5.60;;;0.73;;
52878;SDS011;38747;53.140;6.498;2022-12-26T10:55:15;6.22;;;0.90;;
52878;SDS011;38747;53.140;6.498;2022-12-26T10:57:43;4.13;;;0.80;;
52878;SDS011;38747;53.140;6.498;2022-12-26T11:00:16;6.90;;;0.80;;
52878;SDS011;38747;53.140;6.498;2022-12-26T11:03:06;6.18;;;0.82;;
52878;SDS011;38747;53.140;6.498;2022-12-26T11:05:34;9.85;;;1.08;;
52878;SDS011;38747;53.140;6.498;2022-12-26T11:10:40;7.70;;;0.90;;
52878;SDS011;38747;53.140;6.498;2022-12-26T11:13:17;10.03;;;1.07;;
52878;SDS011;38747;53.140;6.498;2022-12-26T11:15:47;7.75;;;0.93;;
52878;SDS011;38747;53.140;6.498;2022-12-26T11:18:19;9.38;;;1.00;;
52878;SDS011;38747;53.140;6.498;2022-12-26T11:21:19;11.70;;;1.23;;
52878;SDS011;38747;53.140;6.498;2022-12-26T11:23:48;7.03;;;0.95;;
52878;SDS011;38747;53.140;6.498;2022-12-26T11:26:27;8.57;;;1.10;;
52878;SDS011;38747;53.140;6.498;2022-12-26T11:31:36;7.97;;;0.82;;
52878;SDS011;38747;53.140;6.498;2022-12-26T11:34:14;8.18;;;0.77;;
52878;SDS011;38747;53.140;6.498;2022-12-26T11:36:45;8.23;;;0.80;;
52878;SDS011;38747;53.140;6.498;2022-12-26T11:39:23;11.23;;;1.10;;
52878;SDS011;38747;53.140;6.498;2022-12-26T11:41:51;7.43;;;0.88;;
52878;SDS011;38747;53.140;6.498;2022-12-26T11:44:18;7.38;;;0.80;;
52878;SDS011;38747;53.140;6.498;2022-12-26T11:46:55;10.35;;;1.25;;
52878;SDS011;38747;53.140;6.498;2022-12-26T11:49:29;11.88;;;1.25;;
52878;SDS011;38747;53.140;6.498;2022-12-26T11:51:59;6.33;;;0.90;;
52878;SDS011;38747;53.140;6.498;2022-12-26T11:57:00;9.40;;;1.00;;
52878;SDS011;38747;53.140;6.498;2022-12-26T11:59:37;8.00;;;1.02;;
52878;SDS011;38747;53.140;6.498;2022-12-26T12:04:40;10.40;;;0.95;;
52878;SDS011;38747;53.140;6.498;2022-12-26T12:07:14;9.35;;;1.20;;
52878;SDS011;38747;53.140;6.498;2022-12-26T12:12:44;10.52;;;1.40;;
52878;SDS011;38747;53.140;6.498;2022-12-26T12:15:19;10.23;;;1.10;;
52878;SDS011;38747;53.140;6.498;2022-12-26T12:18:04;11.73;;;1.25;;
52878;SDS011;38747;53.140;6.498;2022-12-26T12:26:11;8.60;;;1.08;;
52878;SDS011;38747;53.140;6.498;2022-12-26T12:31:57;9.07;;;1.42;;
52878;SDS011;38747;53.140;6.498;2022-12-26T12:40:27;8.75;;;1.50;;
52878;SDS011;38747;53.140;6.498;2022-12-26T12:51:30;7.60;;;1.25;;
52878;SDS011;38747;53.140;6.498;2022-12-26T13:02:00;11.25;;;1.10;;
52878;SDS011;38747;53.140;6.498;2022-12-26T13:04:37;9.57;;;1.10;;
52878;SDS011;38747;53.140;6.498;2022-12-26T13:07:11;12.32;;;1.38;;
52878;SDS011;38747;53.140;6.498;2022-12-26T13:09:49;11.97;;;1.10;;
52878;SDS011;38747;53.140;6.498;2022-12-26T13:12:21;8.93;;;1.10;;
52878;SDS011;38747;53.140;6.498;2022-12-26T13:14:54;8.52;;;1.23;;
52878;SDS011;38747;53.140;6.498;2022-12-26T13:17:32;12.07;;;1.52;;
52878;SDS011;38747;53.140;6.498;2022-12-26T13:22:59;11.60;;;1.07;;
52878;SDS011;38747;53.140;6.498;2022-12-26T13:26:04;9.50;;;1.30;;
52878;SDS011;38747;53.140;6.498;2022-12-26T13:28:36;11.45;;;1.75;;
52878;SDS011;38747;53.140;6.498;2022-12-26T13:31:10;11.00;;;1.70;;
52878;SDS011;38747;53.140;6.498;2022-12-26T13:33:37;9.60;;;1.70;;
52878;SDS011;38747;53.140;6.498;2022-12-26T13:36:06;12.70;;;1.83;;
52878;SDS011;38747;53.140;6.498;2022-12-26T13:41:20;9.20;;;1.30;;
52878;SDS011;38747;53.140;6.498;2022-12-26T13:44:06;13.75;;;1.23;;
52878;SDS011;38747;53.140;6.498;2022-12-26T13:54:35;9.67;;;1.40;;
52878;SDS011;38747;53.140;6.498;2022-12-26T13:57:27;9.25;;;1.00;;
52878;SDS011;38747;53.140;6.498;2022-12-26T14:00:00;13.00;;;1.50;;
52878;SDS011;38747;53.140;6.498;2022-12-26T14:22:04;9.83;;;1.40;;
52878;SDS011;38747;53.140;6.498;2022-12-26T14:24:46;13.30;;;1.50;;
52878;SDS011;38747;53.140;6.498;2022-12-26T14:27:32;10.48;;;1.55;;
52878;SDS011;38747;53.140;6.498;2022-12-26T14:38:32;11.13;;;1.75;;
52878;SDS011;38747;53.140;6.498;2022-12-26T14:41:06;10.50;;;1.50;;
52878;SDS011;38747;53.140;6.498;2022-12-26T14:44:59;11.48;;;1.50;;
52878;SDS011;38747;53.140;6.498;2022-12-26T14:46:58;10.60;;;1.73;;
52878;SDS011;38747;53.140;6.498;2022-12-26T14:52:26;13.55;;;1.45;;
52878;SDS011;38747;53.140;6.498;2022-12-26T14:54:48;12.18;;;1.50;;
52878;SDS011;38747;53.140;6.498;2022-12-26T15:02:51;11.40;;;1.53;;
52878;SDS011;38747;53.140;6.498;2022-12-26T15:05:46;11.98;;;1.30;;
52878;SDS011;38747;53.140;6.498;2022-12-26T15:10:57;12.02;;;1.38;;
52878;SDS011;38747;53.140;6.498;2022-12-26T15:16:56;15.00;;;1.40;;
52878;SDS011;38747;53.140;6.498;2022-12-26T15:22:19;13.20;;;1.67;;
52878;SDS011;38747;53.140;6.498;2022-12-26T15:25:35;10.20;;;1.48;;
52878;SDS011;38747;53.140;6.498;2022-12-26T15:31:12;16.57;;;1.60;;
52878;SDS011;38747;53.140;6.498;2022-12-26T15:34:27;9.65;;;1.30;;
52878;SDS011;38747;53.140;6.498;2022-12-26T15:56:19;11.13;;;1.30;;
52878;SDS011;38747;53.140;6.498;2022-12-26T16:01:41;13.82;;;1.40;;
52878;SDS011;38747;53.140;6.498;2022-12-26T16:15:01;7.85;;;1.00;;
52878;SDS011;38747;53.140;6.498;2022-12-26T16:17:49;14.80;;;1.67;;
52878;SDS011;38747;53.140;6.498;2022-12-26T16:20:16;13.82;;;1.42;;
52878;SDS011;38747;53.140;6.498;2022-12-26T16:23:14;9.90;;;1.00;;
52878;SDS011;38747;53.140;6.498;2022-12-26T16:25:49;12.63;;;1.03;;
52878;SDS011;38747;53.140;6.498;2022-12-26T16:28:18;10.82;;;1.55;;
52878;SDS011;38747;53.140;6.498;2022-12-26T16:30:49;12.65;;;1.50;;
52878;SDS011;38747;53.140;6.498;2022-12-26T16:33:15;12.93;;;1.58;;
52878;SDS011;38747;53.140;6.498;2022-12-26T16:35:41;12.77;;;1.33;;
52878;SDS011;38747;53.140;6.498;2022-12-26T16:38:12;11.68;;;1.42;;
52878;SDS011;38747;53.140;6.498;2022-12-26T16:40:45;9.90;;;1.10;;
52878;SDS011;38747;53.140;6.498;2022-12-26T16:45:38;8.33;;;1.30;;
52878;SDS011;38747;53.140;6.498;2022-12-26T16:48:05;9.15;;;0.90;;
52878;SDS011;38747;53.140;6.498;2022-12-26T16:50:33;9.67;;;1.23;;
52878;SDS011;38747;53.140;6.498;2022-12-26T16:53:03;10.93;;;1.27;;
52878;SDS011;38747;53.140;6.498;2022-12-26T16:55:47;8.25;;;1.38;;
52878;SDS011;38747;53.140;6.498;2022-12-26T16:58:20;10.25;;;1.30;;
52878;SDS011;38747;53.140;6.498;2022-12-26T17:05:58;8.02;;;1.20;;
52878;SDS011;38747;53.140;6.498;2022-12-26T17:08:24;11.15;;;1.05;;
52878;SDS011;38747;53.140;6.498;2022-12-26T17:10:51;8.48;;;1.08;;
52878;SDS011;38747;53.140;6.498;2022-12-26T17:13:19;12.87;;;1.47;;
52878;SDS011;38747;53.140;6.498;2022-12-26T17:15:50;13.00;;;1.45;;
52878;SDS011;38747;53.140;6.498;2022-12-26T17:18:53;7.15;;;1.15;;
52878;SDS011;38747;53.140;6.498;2022-12-26T17:21:14;9.27;;;1.20;;
52878;SDS011;38747;53.140;6.498;2022-12-26T17:23:41;7.05;;;1.25;;
52878;SDS011;38747;53.140;6.498;2022-12-26T17:26:22;11.87;;;1.27;;
52878;SDS011;38747;53.140;6.498;2022-12-26T17:28:49;10.95;;;1.42;;
52878;SDS011;38747;53.140;6.498;2022-12-26T17:31:17;17.33;;;1.83;;
52878;SDS011;38747;53.140;6.498;2022-12-26T17:33:49;8.65;;;1.02;;
52878;SDS011;38747;53.140;6.498;2022-12-26T17:36:18;10.68;;;1.45;;
52878;SDS011;38747;53.140;6.498;2022-12-26T17:38:44;9.03;;;1.10;;
52878;SDS011;38747;53.140;6.498;2022-12-26T17:41:11;12.50;;;1.38;;
52878;SDS011;38747;53.140;6.498;2022-12-26T17:43:40;6.10;;;1.15;;
52878;SDS011;38747;53.140;6.498;2022-12-26T17:46:07;8.23;;;1.25;;
52878;SDS011;38747;53.140;6.498;2022-12-26T17:48:37;12.27;;;1.17;;
52878;SDS011;38747;53.140;6.498;2022-12-26T17:51:04;8.88;;;1.25;;
52878;SDS011;38747;53.140;6.498;2022-12-26T17:53:32;11.75;;;1.13;;
52878;SDS011;38747;53.140;6.498;2022-12-26T17:56:04;10.85;;;1.33;;
52878;SDS011;38747;53.140;6.498;2022-12-26T17:58:41;8.20;;;1.10;;
52878;SDS011;38747;53.140;6.498;2022-12-26T18:01:07;11.27;;;1.13;;
52878;SDS011;38747;53.140;6.498;2022-12-26T18:03:32;11.88;;;1.27;;
52878;SDS011;38747;53.140;6.498;2022-12-26T18:05:58;8.97;;;1.10;;
52878;SDS011;38747;53.140;6.498;2022-12-26T18:08:32;10.18;;;1.20;;
52878;SDS011;38747;53.140;6.498;2022-12-26T18:10:59;12.07;;;1.42;;
52878;SDS011;38747;53.140;6.498;2022-12-26T18:13:26;9.13;;;1.10;;
52878;SDS011;38747;53.140;6.498;2022-12-26T18:15:53;7.60;;;1.00;;
52878;SDS011;38747;53.140;6.498;2022-12-26T18:18:21;14.65;;;1.75;;
52878;SDS011;38747;53.140;6.498;2022-12-26T18:20:59;12.35;;;1.25;;
52878;SDS011;38747;53.140;6.498;2022-12-26T18:23:26;7.25;;;1.02;;
52878;SDS011;38747;53.140;6.498;2022-12-26T18:25:52;9.83;;;1.20;;
52878;SDS011;38747;53.140;6.498;2022-12-26T18:28:19;14.65;;;1.55;;
52878;SDS011;38747;53.140;6.498;2022-12-26T18:30:45;8.43;;;1.77;;
52878;SDS011;38747;53.140;6.498;2022-12-26T18:33:11;13.70;;;2.00;;
52878;SDS011;38747;53.140;6.498;2022-12-26T18:35:38;11.30;;;2.22;;
52878;SDS011;38747;53.140;6.498;2022-12-26T18:38:05;7.80;;;1.42;;
52878;SDS011;38747;53.140;6.498;2022-12-26T18:40:38;8.40;;;1.27;;
52878;SDS011;38747;53.140;6.498;2022-12-26T18:43:06;11.18;;;1.33;;